sensor_id;sensor_type;location;lat;lon;timestamp;pressure;altitude;pressure_sealevel;temperature;humidity
7940;BME280;4015;48.888;9.226;2023-02-01T00:01:20;156459.00;;;4.81;87.18
7940;BME280;4015;48.888;9.226;2023-02-01T00:03:46;156442.47;;;4.75;87.59
7940;BME280;4015;48.888;9.226;2023-02-01T00:06:11;156441.19;;;4.74;87.70
7940;BME280;4015;48.888;9.226;2023-02-01T00:08:36;156446.25;;;4.76;87.20
7940;BME280;4015;48.888;9.226;2023-02-01T00:11:04;156441.19;;;4.74;87.45
7940;BME280;4015;48.888;9.226;2023-02-01T00:13:31;156442.47;;;4.75;87.30
7940;BME280;4015;48.888;9.226;2023-02-01T00:18:29;156422.13;;;4.67;87.52
7940;BME280;4015;48.888;9.226;2023-02-01T00:20:55;156400.47;;;4.58;87.79
7940;BME280;4015;48.888;9.226;2023-02-01T00:23:20;156383.91;;;4.51;88.50
7940;BME280;4015;48.888;9.226;2023-02-01T00:25:45;156364.84;;;4.44;88.21
7940;BME280;4015;48.888;9.226;2023-02-01T00:28:11;156348.31;;;4.37;88.94
7940;BME280;4015;48.888;9.226;2023-02-01T00:30:38;156361.03;;;4.42;88.71
7940;BME280;4015;48.888;9.226;2023-02-01T00:33:03;156371.25;;;4.46;88.70
7940;BME280;4015;48.888;9.226;2023-02-01T00:35:28;156373.78;;;4.47;88.97
7940;BME280;4015;48.888;9.226;2023-02-01T00:37:54;156385.19;;;4.52;88.21
7940;BME280;4015;48.888;9.226;2023-02-01T00:40:19;156392.84;;;4.55;88.11
7940;BME280;4015;48.888;9.226;2023-02-01T00:42:44;156373.78;;;4.47;88.37
7940;BME280;4015;48.888;9.226;2023-02-01T00:45:10;156386.47;;;4.52;88.04
7940;BME280;4015;48.888;9.226;2023-02-01T00:47:35;156401.72;;;4.58;88.47
7940;BME280;4015;48.888;9.226;2023-02-01T00:50:01;156404.31;;;4.59;88.22
7940;BME280;4015;48.888;9.226;2023-02-01T00:52:26;156382.66;;;4.51;87.82
7940;BME280;4015;48.888;9.226;2023-02-01T00:54:51;156363.59;;;4.43;88.52
7940;BME280;4015;48.888;9.226;2023-02-01T00:57:17;156348.31;;;4.37;88.55
7940;BME280;4015;48.888;9.226;2023-02-01T00:59:42;156329.25;;;4.29;88.64
7940;BME280;4015;48.888;9.226;2023-02-01T01:02:07;156310.19;;;4.22;89.09
7940;BME280;4015;48.888;9.226;2023-02-01T01:04:33;156312.72;;;4.23;88.77
7940;BME280;4015;48.888;9.226;2023-02-01T01:06:58;156315.25;;;4.24;88.99
7940;BME280;4015;48.888;9.226;2023-02-01T01:09:23;156308.91;;;4.21;89.35
7940;BME280;4015;48.888;9.226;2023-02-01T01:11:49;156305.06;;;4.20;88.99
7940;BME280;4015;48.888;9.226;2023-02-01T01:14:16;156296.19;;;4.16;89.13
7940;BME280;4015;48.888;9.226;2023-02-01T01:16:41;156294.91;;;4.16;89.55
7940;BME280;4015;48.888;9.226;2023-02-01T01:19:06;156297.44;;;4.17;89.59
7940;BME280;4015;48.888;9.226;2023-02-01T01:21:32;156313.97;;;4.23;89.47
7940;BME280;4015;48.888;9.226;2023-02-01T01:23:57;156326.72;;;4.28;88.76
7940;BME280;4015;48.888;9.226;2023-02-01T01:26:25;156334.31;;;4.31;88.92
7940;BME280;4015;48.888;9.226;2023-02-01T01:28:51;156331.78;;;4.30;88.96
7940;BME280;4015;48.888;9.226;2023-02-01T01:31:18;156352.13;;;4.39;88.52
7940;BME280;4015;48.888;9.226;2023-02-01T01:33:47;156359.78;;;4.42;88.58
7940;BME280;4015;48.888;9.226;2023-02-01T01:36:13;156358.50;;;4.41;88.44
7940;BME280;4015;48.888;9.226;2023-02-01T01:38:39;156372.50;;;4.47;88.35
7940;BME280;4015;48.888;9.226;2023-02-01T01:41:06;156381.38;;;4.50;88.48
7940;BME280;4015;48.888;9.226;2023-02-01T01:44:00;156386.47;;;4.52;88.07
7940;BME280;4015;48.888;9.226;2023-02-01T01:46:36;156385.19;;;4.52;88.35
7940;BME280;4015;48.888;9.226;2023-02-01T01:49:13;156396.66;;;4.56;87.97
7940;BME280;4015;48.888;9.226;2023-02-01T01:52:00;156395.38;;;4.56;87.49
7940;BME280;4015;48.888;9.226;2023-02-01T01:54:33;156390.31;;;4.54;87.70
7940;BME280;4015;48.888;9.226;2023-02-01T01:57:03;156394.13;;;4.55;87.47
7940;BME280;4015;48.888;9.226;2023-02-01T01:59:31;156431.00;;;4.70;87.34
7940;BME280;4015;48.888;9.226;2023-02-01T02:01:57;156414.47;;;4.64;87.37
7940;BME280;4015;48.888;9.226;2023-02-01T02:04:23;156447.53;;;4.77;86.64
7940;BME280;4015;48.888;9.226;2023-02-01T02:07:19;156456.47;;;4.80;86.41
7940;BME280;4015;48.888;9.226;2023-02-01T02:09:46;156457.72;;;4.81;86.09
7940;BME280;4015;48.888;9.226;2023-02-01T02:12:12;156465.38;;;4.84;85.90
7940;BME280;4015;48.888;9.226;2023-02-01T02:14:37;156448.81;;;4.77;86.28
7940;BME280;4015;48.888;9.226;2023-02-01T02:36:07;156516.28;;;5.04;84.62
7940;BME280;4015;48.888;9.226;2023-02-01T02:38:52;156526.44;;;5.08;84.82
7940;BME280;4015;48.888;9.226;2023-02-01T02:44:22;156525.16;;;5.08;84.98
7940;BME280;4015;48.888;9.226;2023-02-01T02:47:18;156501.00;;;4.98;84.86
7940;BME280;4015;48.888;9.226;2023-02-01T02:49:52;156506.09;;;5.00;84.71
7940;BME280;4015;48.888;9.226;2023-02-01T02:52:44;156495.88;;;4.96;85.62
7940;BME280;4015;48.888;9.226;2023-02-01T02:55:47;156527.69;;;5.09;84.66
7940;BME280;4015;48.888;9.226;2023-02-01T02:58:15;156532.81;;;5.11;85.10
7940;BME280;4015;48.888;9.226;2023-02-01T03:01:00;156512.47;;;5.03;85.27
7940;BME280;4015;48.888;9.226;2023-02-01T03:03:47;156541.69;;;5.14;84.85
7940;BME280;4015;48.888;9.226;2023-02-01T03:06:32;156508.63;;;5.01;84.81
7940;BME280;4015;48.888;9.226;2023-02-01T03:09:00;156517.56;;;5.05;85.50
7940;BME280;4015;48.888;9.226;2023-02-01T03:11:26;156465.38;;;4.84;85.71
7940;BME280;4015;48.888;9.226;2023-02-01T03:14:13;156483.19;;;4.91;85.65
7940;BME280;4015;48.888;9.226;2023-02-01T03:16:46;156457.72;;;4.81;86.23
7940;BME280;4015;48.888;9.226;2023-02-01T03:19:22;156459.00;;;4.81;86.16
7940;BME280;4015;48.888;9.226;2023-02-01T03:21:59;156432.25;;;4.71;86.99
7940;BME280;4015;48.888;9.226;2023-02-01T03:24:42;156439.94;;;4.74;86.75
7940;BME280;4015;48.888;9.226;2023-02-01T03:27:25;156411.91;;;4.63;87.02
7940;BME280;4015;48.888;9.226;2023-02-01T03:29:56;156419.59;;;4.66;87.36
7940;BME280;4015;48.888;9.226;2023-02-01T03:32:23;156394.13;;;4.55;87.42
7940;BME280;4015;48.888;9.226;2023-02-01T03:34:49;156382.66;;;4.51;88.19
7940;BME280;4015;48.888;9.226;2023-02-01T03:37:25;156381.38;;;4.50;88.03
7940;BME280;4015;48.888;9.226;2023-02-01T03:40:04;156391.56;;;4.54;87.83
7940;BME280;4015;48.888;9.226;2023-02-01T03:42:34;156391.56;;;4.54;88.22
7940;BME280;4015;48.888;9.226;2023-02-01T03:47:41;156392.84;;;4.55;87.99
7940;BME280;4015;48.888;9.226;2023-02-01T03:50:13;156439.94;;;4.74;87.31
7940;BME280;4015;48.888;9.226;2023-02-01T03:52:47;156431.00;;;4.70;87.22
7940;BME280;4015;48.888;9.226;2023-02-01T03:55:19;156452.66;;;4.79;86.99
7940;BME280;4015;48.888;9.226;2023-02-01T03:57:53;156457.72;;;4.81;87.09
7940;BME280;4015;48.888;9.226;2023-02-01T04:00:23;156471.72;;;4.86;86.95
7940;BME280;4015;48.888;9.226;2023-02-01T04:02:49;156465.38;;;4.84;86.86
7940;BME280;4015;48.888;9.226;2023-02-01T04:05:15;156506.09;;;5.00;86.62
7940;BME280;4015;48.888;9.226;2023-02-01T04:07:42;156507.34;;;5.01;86.34
7940;BME280;4015;48.888;9.226;2023-02-01T04:10:08;156499.75;;;4.98;86.27
7940;BME280;4015;48.888;9.226;2023-02-01T04:12:34;156526.44;;;5.08;86.37
7940;BME280;4015;48.888;9.226;2023-02-01T04:14:59;156546.81;;;5.17;85.39
7940;BME280;4015;48.888;9.226;2023-02-01T04:17:24;156503.53;;;4.99;85.75
7940;BME280;4015;48.888;9.226;2023-02-01T04:19:50;156474.28;;;4.87;85.94
7940;BME280;4015;48.888;9.226;2023-02-01T04:22:15;156451.38;;;4.78;86.58
7940;BME280;4015;48.888;9.226;2023-02-01T04:24:41;156471.72;;;4.86;86.36
7940;BME280;4015;48.888;9.226;2023-02-01T04:27:06;156479.34;;;4.90;86.60
7940;BME280;4015;48.888;9.226;2023-02-01T04:29:31;156465.38;;;4.84;86.22
7940;BME280;4015;48.888;9.226;2023-02-01T04:31:57;156489.53;;;4.94;86.47
7940;BME280;4015;48.888;9.226;2023-02-01T04:34:22;156487.00;;;4.93;86.29
7940;BME280;4015;48.888;9.226;2023-02-01T04:36:50;156497.19;;;4.97;86.41
7940;BME280;4015;48.888;9.226;2023-02-01T04:39:15;156499.75;;;4.98;86.05
7940;BME280;4015;48.888;9.226;2023-02-01T04:41:41;156484.47;;;4.92;86.50
7940;BME280;4015;48.888;9.226;2023-02-01T04:44:13;156489.53;;;4.94;86.71
7940;BME280;4015;48.888;9.226;2023-02-01T04:46:39;156501.00;;;4.98;86.21
7940;BME280;4015;48.888;9.226;2023-02-01T04:49:05;156489.53;;;4.94;86.51
7940;BME280;4015;48.888;9.226;2023-02-01T04:51:30;156480.63;;;4.90;86.52
7940;BME280;4015;48.888;9.226;2023-02-01T04:53:55;156475.53;;;4.88;86.87
7940;BME280;4015;48.888;9.226;2023-02-01T04:56:21;156469.19;;;4.85;86.71
7940;BME280;4015;48.888;9.226;2023-02-01T04:58:47;156526.44;;;5.08;85.63
7940;BME280;4015;48.888;9.226;2023-02-01T05:01:12;156530.28;;;5.10;85.65
7940;BME280;4015;48.888;9.226;2023-02-01T05:03:37;156526.44;;;5.08;85.51
7940;BME280;4015;48.888;9.226;2023-02-01T05:06:03;156522.63;;;5.07;85.69
7940;BME280;4015;48.888;9.226;2023-02-01T05:08:30;156516.28;;;5.04;85.67
7940;BME280;4015;48.888;9.226;2023-02-01T05:10:56;156522.63;;;5.07;85.64
7940;BME280;4015;48.888;9.226;2023-02-01T05:13:21;156516.28;;;5.04;86.19
7940;BME280;4015;48.888;9.226;2023-02-01T05:16:06;156525.16;;;5.08;86.07
7940;BME280;4015;48.888;9.226;2023-02-01T05:18:31;156537.91;;;5.13;85.61
7940;BME280;4015;48.888;9.226;2023-02-01T05:20:57;156544.28;;;5.16;85.58
7940;BME280;4015;48.888;9.226;2023-02-01T05:23:22;156544.28;;;5.16;85.92
7940;BME280;4015;48.888;9.226;2023-02-01T05:25:48;156525.16;;;5.08;87.22
7940;BME280;4015;48.888;9.226;2023-02-01T05:28:13;156527.69;;;5.09;86.85
7940;BME280;4015;48.888;9.226;2023-02-01T05:30:38;156542.97;;;5.15;86.65
7940;BME280;4015;48.888;9.226;2023-02-01T05:33:04;156550.63;;;5.18;86.57
7940;BME280;4015;48.888;9.226;2023-02-01T05:35:29;156562.09;;;5.23;86.39
7940;BME280;4015;48.888;9.226;2023-02-01T05:37:55;156559.56;;;5.22;86.31
7940;BME280;4015;48.888;9.226;2023-02-01T05:40:20;156542.97;;;5.15;86.50
7940;BME280;4015;48.888;9.226;2023-02-01T05:42:46;156548.09;;;5.17;86.09
7940;BME280;4015;48.888;9.226;2023-02-01T05:45:11;156559.56;;;5.22;86.05
7940;BME280;4015;48.888;9.226;2023-02-01T05:47:37;156560.84;;;5.22;85.83
7940;BME280;4015;48.888;9.226;2023-02-01T05:50:03;156534.09;;;5.11;86.02
7940;BME280;4015;48.888;9.226;2023-02-01T05:52:29;156550.63;;;5.18;86.12
7940;BME280;4015;48.888;9.226;2023-02-01T05:54:54;156555.72;;;5.20;85.79
7940;BME280;4015;48.888;9.226;2023-02-01T05:57:20;156559.56;;;5.22;85.33
7940;BME280;4015;48.888;9.226;2023-02-01T05:59:45;156564.63;;;5.24;84.92
7940;BME280;4015;48.888;9.226;2023-02-01T06:02:11;156568.44;;;5.25;85.08
7940;BME280;4015;48.888;9.226;2023-02-01T06:04:37;156578.66;;;5.29;84.68
7940;BME280;4015;48.888;9.226;2023-02-01T06:07:02;156595.19;;;5.36;84.80
7940;BME280;4015;48.888;9.226;2023-02-01T06:09:28;156587.53;;;5.33;85.13
7940;BME280;4015;48.888;9.226;2023-02-01T06:11:53;156601.53;;;5.38;85.25
7940;BME280;4015;48.888;9.226;2023-02-01T06:14:19;156619.34;;;5.46;84.72
7940;BME280;4015;48.888;9.226;2023-02-01T06:16:44;156637.16;;;5.53;84.78
7940;BME280;4015;48.888;9.226;2023-02-01T06:19:11;156647.38;;;5.57;84.68
7940;BME280;4015;48.888;9.226;2023-02-01T06:21:37;156655.03;;;5.60;84.66
7940;BME280;4015;48.888;9.226;2023-02-01T06:24:02;156662.66;;;5.63;84.73
7940;BME280;4015;48.888;9.226;2023-02-01T06:26:28;156677.94;;;5.69;84.54
7940;BME280;4015;48.888;9.226;2023-02-01T06:28:54;156672.84;;;5.67;84.56
7940;BME280;4015;48.888;9.226;2023-02-01T06:31:20;156675.38;;;5.68;84.79
7940;BME280;4015;48.888;9.226;2023-02-01T06:33:46;156669.00;;;5.65;84.73
7940;BME280;4015;48.888;9.226;2023-02-01T06:36:12;156657.56;;;5.61;84.95
7940;BME280;4015;48.888;9.226;2023-02-01T06:38:38;156663.91;;;5.63;85.28
7940;BME280;4015;48.888;9.226;2023-02-01T06:41:05;156675.38;;;5.68;85.05
7940;BME280;4015;48.888;9.226;2023-02-01T06:43:31;156680.47;;;5.70;85.15
7940;BME280;4015;48.888;9.226;2023-02-01T06:46:06;156691.94;;;5.75;85.19
7940;BME280;4015;48.888;9.226;2023-02-01T06:48:34;156672.84;;;5.67;84.82
7940;BME280;4015;48.888;9.226;2023-02-01T06:51:00;156677.94;;;5.69;84.79
7940;BME280;4015;48.888;9.226;2023-02-01T06:53:25;156688.13;;;5.73;84.65
7940;BME280;4015;48.888;9.226;2023-02-01T06:55:56;156684.28;;;5.72;84.31
7940;BME280;4015;48.888;9.226;2023-02-01T06:58:22;156689.41;;;5.74;84.79
7940;BME280;4015;48.888;9.226;2023-02-01T07:00:47;156689.41;;;5.74;84.22
7940;BME280;4015;48.888;9.226;2023-02-01T07:03:13;156698.28;;;5.77;83.40
7940;BME280;4015;48.888;9.226;2023-02-01T07:05:38;156698.28;;;5.77;83.99
7940;BME280;4015;48.888;9.226;2023-02-01T07:08:04;156716.09;;;5.84;83.43
7940;BME280;4015;48.888;9.226;2023-02-01T07:10:29;156726.31;;;5.88;83.83
7940;BME280;4015;48.888;9.226;2023-02-01T07:12:57;156745.44;;;5.96;83.45
7940;BME280;4015;48.888;9.226;2023-02-01T07:15:23;156735.28;;;5.92;83.33
7940;BME280;4015;48.888;9.226;2023-02-01T07:17:48;156751.84;;;5.99;81.91
7940;BME280;4015;48.888;9.226;2023-02-01T07:20:15;156764.59;;;6.04;82.76
7940;BME280;4015;48.888;9.226;2023-02-01T07:22:40;156754.38;;;6.00;82.63
7940;BME280;4015;48.888;9.226;2023-02-01T07:25:06;156755.66;;;6.00;82.63
7940;BME280;4015;48.888;9.226;2023-02-01T07:27:34;156786.22;;;6.12;82.12
7940;BME280;4015;48.888;9.226;2023-02-01T07:29:59;156773.47;;;6.07;82.03
7940;BME280;4015;48.888;9.226;2023-02-01T07:32:27;156787.50;;;6.13;82.09
7940;BME280;4015;48.888;9.226;2023-02-01T07:34:53;156777.28;;;6.09;81.57
7940;BME280;4015;48.888;9.226;2023-02-01T07:37:18;156805.31;;;6.20;81.79
7940;BME280;4015;48.888;9.226;2023-02-01T07:39:43;156786.22;;;6.12;81.81
7940;BME280;4015;48.888;9.226;2023-02-01T07:42:09;156791.28;;;6.14;81.90
7940;BME280;4015;48.888;9.226;2023-02-01T07:44:34;156795.09;;;6.16;82.15
7940;BME280;4015;48.888;9.226;2023-02-01T07:46:59;156788.75;;;6.13;81.56
7940;BME280;4015;48.888;9.226;2023-02-01T07:49:25;156816.78;;;6.25;81.48
7940;BME280;4015;48.888;9.226;2023-02-01T07:51:50;156772.19;;;6.07;81.47
7940;BME280;4015;48.888;9.226;2023-02-01T07:54:16;156763.28;;;6.03;81.45
7940;BME280;4015;48.888;9.226;2023-02-01T07:56:41;156769.66;;;6.06;81.69
7940;BME280;4015;48.888;9.226;2023-02-01T07:59:06;156790.03;;;6.14;81.72
7940;BME280;4015;48.888;9.226;2023-02-01T08:01:33;156788.75;;;6.13;82.19
7940;BME280;4015;48.888;9.226;2023-02-01T08:04:03;156772.19;;;6.07;81.86
7940;BME280;4015;48.888;9.226;2023-02-01T08:06:30;156784.94;;;6.12;82.33
7940;BME280;4015;48.888;9.226;2023-02-01T08:08:56;156777.28;;;6.09;81.90
7940;BME280;4015;48.888;9.226;2023-02-01T08:11:23;156811.72;;;6.22;81.78
7940;BME280;4015;48.888;9.226;2023-02-01T08:13:50;156809.13;;;6.21;81.46
7940;BME280;4015;48.888;9.226;2023-02-01T08:16:18;156830.81;;;6.30;81.25
7940;BME280;4015;48.888;9.226;2023-02-01T08:18:44;156821.88;;;6.27;81.11
7940;BME280;4015;48.888;9.226;2023-02-01T08:21:18;156824.41;;;6.28;80.56
7940;BME280;4015;48.888;9.226;2023-02-01T08:23:44;156835.88;;;6.32;80.31
7940;BME280;4015;48.888;9.226;2023-02-01T08:28:52;156913.59;;;6.63;79.17
7940;BME280;4015;48.888;9.226;2023-02-01T08:31:19;156928.88;;;6.69;78.54
7940;BME280;4015;48.888;9.226;2023-02-01T08:33:52;156933.97;;;6.71;78.73
7940;BME280;4015;48.888;9.226;2023-02-01T08:36:18;156960.75;;;6.82;78.62
7940;BME280;4015;48.888;9.226;2023-02-01T08:38:43;156978.56;;;6.89;77.98
7940;BME280;4015;48.888;9.226;2023-02-01T08:41:12;156967.09;;;6.85;77.54
7940;BME280;4015;48.888;9.226;2023-02-01T08:43:38;156979.84;;;6.90;77.97
7940;BME280;4015;48.888;9.226;2023-02-01T08:46:04;156967.09;;;6.85;77.52
7940;BME280;4015;48.888;9.226;2023-02-01T08:48:31;156933.97;;;6.71;77.41
7940;BME280;4015;48.888;9.226;2023-02-01T08:50:56;156941.63;;;6.74;77.83
7940;BME280;4015;48.888;9.226;2023-02-01T08:53:22;156927.63;;;6.69;77.91
7940;BME280;4015;48.888;9.226;2023-02-01T08:55:48;156923.81;;;6.67;77.62
7940;BME280;4015;48.888;9.226;2023-02-01T08:58:14;156927.63;;;6.69;78.00
7940;BME280;4015;48.888;9.226;2023-02-01T09:00:40;156891.97;;;6.55;78.00
7940;BME280;4015;48.888;9.226;2023-02-01T09:03:05;156903.38;;;6.59;78.26
7940;BME280;4015;48.888;9.226;2023-02-01T09:05:31;156861.38;;;6.42;78.67
7940;BME280;4015;48.888;9.226;2023-02-01T09:07:56;156876.66;;;6.48;78.70
7940;BME280;4015;48.888;9.226;2023-02-01T09:10:21;156886.81;;;6.53;78.88
7940;BME280;4015;48.888;9.226;2023-02-01T09:12:47;156899.56;;;6.58;78.72
7940;BME280;4015;48.888;9.226;2023-02-01T09:15:12;156921.25;;;6.66;78.49
7940;BME280;4015;48.888;9.226;2023-02-01T09:17:37;156939.09;;;6.73;78.68
7940;BME280;4015;48.888;9.226;2023-02-01T09:20:03;156918.69;;;6.65;78.95
7940;BME280;4015;48.888;9.226;2023-02-01T09:22:29;156904.66;;;6.60;78.97
7940;BME280;4015;48.888;9.226;2023-02-01T09:24:54;156928.88;;;6.69;79.52
7940;BME280;4015;48.888;9.226;2023-02-01T09:27:20;156936.50;;;6.72;80.46
7940;BME280;4015;48.888;9.226;2023-02-01T09:29:45;157005.34;;;7.00;79.88
7940;BME280;4015;48.888;9.226;2023-02-01T09:32:14;157049.97;;;7.18;77.72
7940;BME280;4015;48.888;9.226;2023-02-01T09:34:40;157049.97;;;7.18;77.44
7940;BME280;4015;48.888;9.226;2023-02-01T09:37:05;157034.66;;;7.12;77.50
7940;BME280;4015;48.888;9.226;2023-02-01T09:39:30;157001.53;;;6.98;77.38
7940;BME280;4015;48.888;9.226;2023-02-01T09:47:19;156973.50;;;6.87;77.45
7940;BME280;4015;48.888;9.226;2023-02-01T09:52:43;156991.31;;;6.94;77.17
7940;BME280;4015;48.888;9.226;2023-02-01T09:55:16;157011.69;;;7.02;77.24
7940;BME280;4015;48.888;9.226;2023-02-01T09:57:51;157027.00;;;7.09;75.75
7940;BME280;4015;48.888;9.226;2023-02-01T10:00:30;157070.34;;;7.26;74.90
7940;BME280;4015;48.888;9.226;2023-02-01T10:02:58;157094.56;;;7.36;74.44
7940;BME280;4015;48.888;9.226;2023-02-01T10:14:27;157301.13;;;8.18;71.88
7940;BME280;4015;48.888;9.226;2023-02-01T10:22:53;157364.94;;;8.44;69.41
7940;BME280;4015;48.888;9.226;2023-02-01T10:25:26;157377.72;;;8.49;67.89
7940;BME280;4015;48.888;9.226;2023-02-01T10:27:53;157428.72;;;8.69;67.92
7940;BME280;4015;48.888;9.226;2023-02-01T10:30:23;157440.22;;;8.74;68.06
7940;BME280;4015;48.888;9.226;2023-02-01T10:32:50;157313.84;;;8.23;69.10
7940;BME280;4015;48.888;9.226;2023-02-01T10:35:31;157195.28;;;7.76;69.98
7940;BME280;4015;48.888;9.226;2023-02-01T10:38:02;157199.09;;;7.77;70.42
7940;BME280;4015;48.888;9.226;2023-02-01T10:40:28;157173.63;;;7.67;71.27
7940;BME280;4015;48.888;9.226;2023-02-01T10:42:57;157097.13;;;7.37;71.88
7940;BME280;4015;48.888;9.226;2023-02-01T10:45:26;157122.59;;;7.47;72.53
7940;BME280;4015;48.888;9.226;2023-02-01T10:47:54;157125.13;;;7.48;71.71
7940;BME280;4015;48.888;9.226;2023-02-01T10:50:37;157109.88;;;7.42;72.04
7940;BME280;4015;48.888;9.226;2023-02-01T10:55:51;157075.41;;;7.28;72.47
7940;BME280;4015;48.888;9.226;2023-02-01T10:58:18;157034.66;;;7.12;72.66
7940;BME280;4015;48.888;9.226;2023-02-01T11:03:42;157134.06;;;7.51;72.58
7940;BME280;4015;48.888;9.226;2023-02-01T11:06:24;157126.44;;;7.48;71.50
7940;BME280;4015;48.888;9.226;2023-02-01T11:08:53;157144.28;;;7.55;71.76
7940;BME280;4015;48.888;9.226;2023-02-01T11:11:19;157120.03;;;7.46;71.40
7940;BME280;4015;48.888;9.226;2023-02-01T11:13:52;157099.66;;;7.38;71.46
7940;BME280;4015;48.888;9.226;2023-02-01T11:16:18;157097.13;;;7.37;72.25
7940;BME280;4015;48.888;9.226;2023-02-01T11:18:43;157136.59;;;7.52;72.73
7940;BME280;4015;48.888;9.226;2023-02-01T11:21:10;157141.75;;;7.54;71.88
7940;BME280;4015;48.888;9.226;2023-02-01T11:23:41;157108.56;;;7.41;71.95
7940;BME280;4015;48.888;9.226;2023-02-01T11:26:26;157136.59;;;7.52;72.11
7940;BME280;4015;48.888;9.226;2023-02-01T11:28:56;157149.38;;;7.57;72.24
7940;BME280;4015;48.888;9.226;2023-02-01T11:31:23;157113.69;;;7.43;71.22
7940;BME280;4015;48.888;9.226;2023-02-01T11:33:52;157062.72;;;7.23;71.75
7940;BME280;4015;48.888;9.226;2023-02-01T11:36:23;157020.63;;;7.06;71.08
7940;BME280;4015;48.888;9.226;2023-02-01T11:41:32;156960.75;;;6.82;72.36
7940;BME280;4015;48.888;9.226;2023-02-01T11:44:00;156964.56;;;6.84;72.14
7940;BME280;4015;48.888;9.226;2023-02-01T11:46:31;157019.38;;;7.06;72.37
7940;BME280;4015;48.888;9.226;2023-02-01T11:49:15;157046.09;;;7.16;70.68
7940;BME280;4015;48.888;9.226;2023-02-01T11:57:49;157100.94;;;7.38;68.05
7940;BME280;4015;48.888;9.226;2023-02-01T12:09:02;157063.97;;;7.23;67.44
7940;BME280;4015;48.888;9.226;2023-02-01T12:20:26;157034.66;;;7.12;67.91
7940;BME280;4015;48.888;9.226;2023-02-01T12:41:45;157057.59;;;7.21;68.11
7940;BME280;4015;48.888;9.226;2023-02-01T12:44:47;157044.81;;;7.16;69.22
7940;BME280;4015;48.888;9.226;2023-02-01T12:52:24;156998.94;;;6.97;71.07
7940;BME280;4015;48.888;9.226;2023-02-01T12:55:10;156997.69;;;6.97;71.66
7940;BME280;4015;48.888;9.226;2023-02-01T12:57:45;156983.66;;;6.91;71.99
7940;BME280;4015;48.888;9.226;2023-02-01T13:00:20;157011.69;;;7.02;71.61
7940;BME280;4015;48.888;9.226;2023-02-01T13:03:03;157033.41;;;7.11;71.37
7940;BME280;4015;48.888;9.226;2023-02-01T13:05:39;157038.47;;;7.13;71.96
7940;BME280;4015;48.888;9.226;2023-02-01T13:08:15;157034.66;;;7.12;71.94
7940;BME280;4015;48.888;9.226;2023-02-01T13:10:48;157027.00;;;7.09;72.56
7940;BME280;4015;48.888;9.226;2023-02-01T13:18:39;156899.56;;;6.58;75.98
7940;BME280;4015;48.888;9.226;2023-02-01T13:21:17;156953.13;;;6.79;75.48
7940;BME280;4015;48.888;9.226;2023-02-01T13:23:46;157009.16;;;7.01;75.06
7940;BME280;4015;48.888;9.226;2023-02-01T13:26:13;157035.94;;;7.12;73.72
7940;BME280;4015;48.888;9.226;2023-02-01T13:42:30;156927.63;;;6.69;74.67
7940;BME280;4015;48.888;9.226;2023-02-01T13:44:57;156984.97;;;6.92;74.30
7940;BME280;4015;48.888;9.226;2023-02-01T13:47:35;157004.06;;;6.99;73.07
7940;BME280;4015;48.888;9.226;2023-02-01T13:50:25;156998.94;;;6.97;72.19
7940;BME280;4015;48.888;9.226;2023-02-01T13:53:14;157037.22;;;7.13;71.99
7940;BME280;4015;48.888;9.226;2023-02-01T13:55:43;157080.56;;;7.30;71.09
7940;BME280;4015;48.888;9.226;2023-02-01T13:58:29;157056.31;;;7.20;70.90
7940;BME280;4015;48.888;9.226;2023-02-01T14:11:44;156965.81;;;6.84;74.05
7940;BME280;4015;48.888;9.226;2023-02-01T14:16:42;156979.84;;;6.90;72.96
7940;BME280;4015;48.888;9.226;2023-02-01T14:19:18;156979.84;;;6.90;73.44
7940;BME280;4015;48.888;9.226;2023-02-01T14:21:49;156990.06;;;6.94;73.64
7940;BME280;4015;48.888;9.226;2023-02-01T14:24:31;156965.81;;;6.84;73.72
7940;BME280;4015;48.888;9.226;2023-02-01T14:26:58;156940.38;;;6.74;74.18
7940;BME280;4015;48.888;9.226;2023-02-01T14:29:30;156923.81;;;6.67;74.01
7940;BME280;4015;48.888;9.226;2023-02-01T14:32:22;156921.25;;;6.66;73.97
7940;BME280;4015;48.888;9.226;2023-02-01T14:34:53;156907.25;;;6.61;74.13
7940;BME280;4015;48.888;9.226;2023-02-01T14:39:58;156930.16;;;6.70;74.52
7940;BME280;4015;48.888;9.226;2023-02-01T14:50:27;156978.56;;;6.89;72.63
7940;BME280;4015;48.888;9.226;2023-02-01T15:00:52;156953.13;;;6.79;72.64
7940;BME280;4015;48.888;9.226;2023-02-01T15:06:25;156936.50;;;6.72;72.57
7940;BME280;4015;48.888;9.226;2023-02-01T15:08:58;156914.88;;;6.64;73.09
7940;BME280;4015;48.888;9.226;2023-02-01T15:11:25;156919.94;;;6.66;73.30
7940;BME280;4015;48.888;9.226;2023-02-01T15:13:52;156913.59;;;6.63;72.52
7940;BME280;4015;48.888;9.226;2023-02-01T15:16:20;156905.97;;;6.60;71.99
7940;BME280;4015;48.888;9.226;2023-02-01T15:18:47;156886.81;;;6.53;72.32
7940;BME280;4015;48.888;9.226;2023-02-01T15:21:19;156898.31;;;6.57;72.40
7940;BME280;4015;48.888;9.226;2023-02-01T15:23:44;156913.59;;;6.63;72.37
7940;BME280;4015;48.888;9.226;2023-02-01T15:26:24;156927.63;;;6.69;71.43
7940;BME280;4015;48.888;9.226;2023-02-01T15:28:50;156923.81;;;6.67;71.84
7940;BME280;4015;48.888;9.226;2023-02-01T15:31:31;156923.81;;;6.67;71.32
7940;BME280;4015;48.888;9.226;2023-02-01T15:33:57;156922.53;;;6.67;71.33
7940;BME280;4015;48.888;9.226;2023-02-01T15:36:22;156917.41;;;6.65;70.67
7940;BME280;4015;48.888;9.226;2023-02-01T15:39:14;156931.44;;;6.70;70.41
7940;BME280;4015;48.888;9.226;2023-02-01T15:41:46;156930.16;;;6.70;71.46
7940;BME280;4015;48.888;9.226;2023-02-01T15:46:49;156928.88;;;6.69;70.60
7940;BME280;4015;48.888;9.226;2023-02-01T15:49:31;156900.84;;;6.58;71.65
7940;BME280;4015;48.888;9.226;2023-02-01T15:51:59;156919.94;;;6.66;71.21
7940;BME280;4015;48.888;9.226;2023-02-01T15:54:28;156912.31;;;6.63;71.50
7940;BME280;4015;48.888;9.226;2023-02-01T15:56:57;156914.88;;;6.64;71.00
7940;BME280;4015;48.888;9.226;2023-02-01T15:59:41;156919.94;;;6.66;70.72
7940;BME280;4015;48.888;9.226;2023-02-01T16:02:27;156922.53;;;6.67;71.19
7940;BME280;4015;48.888;9.226;2023-02-01T16:04:53;156930.16;;;6.70;71.49
7940;BME280;4015;48.888;9.226;2023-02-01T16:07:30;156937.81;;;6.73;71.45
7940;BME280;4015;48.888;9.226;2023-02-01T16:09:58;156912.31;;;6.63;70.27
7940;BME280;4015;48.888;9.226;2023-02-01T16:15:04;156905.97;;;6.60;71.08
7940;BME280;4015;48.888;9.226;2023-02-01T16:17:29;156903.38;;;6.59;70.52
7940;BME280;4015;48.888;9.226;2023-02-01T16:19:54;156895.75;;;6.56;70.12
7940;BME280;4015;48.888;9.226;2023-02-01T16:22:20;156883.03;;;6.51;70.21